Time;durP1;ratioP1;P1;durP2;ratioP2;P2;SDS_P1;SDS_P2;PMS_P1;PMS_P2;Temp;Humidity;BMP_temperature;BMP_pressure;BME280_temperature;BME280_humidity;BME280_pressure;Samples;Min_cycle;Max_cycle;Signal;HPM_P1;HPM_P2
2023/07/03 00:02:20;;;;;;;;;4.33;3.00;;;;;20.86;44.02;100971.75;5087122;28;45184;-63
2023/07/03 00:04:45;;;;;;;;;6.00;3.00;;;;;20.84;44.34;100969.94;5083586;28;54332;-64
2023/07/03 00:07:12;;;;;;;;;2.00;2.00;;;;;20.87;44.28;100968.13;5085656;28;45079;-64
2023/07/03 00:09:38;;;;;;;;;1.00;1.00;;;;;20.82;44.57;100966.38;5086434;27;45382;-65
2023/07/03 00:12:03;;;;;;;;;5.00;3.33;;;;;20.67;44.81;100962.91;5092152;28;44976;-67
2023/07/03 00:14:29;;;;;;;;;4.00;2.00;;;;;20.74;45.28;100975.50;5088114;28;45055;-65
2023/07/03 00:16:55;;;;;;;;;6.67;3.00;;;;;20.60;45.58;100955.72;5090313;27;44938;-64
2023/07/03 00:19:25;;;;;;;;;3.67;2.00;;;;;20.65;45.89;100969.28;5094444;27;46598;-64
2023/07/03 00:21:50;;;;;;;;;3.00;2.33;;;;;20.68;45.60;100963.84;5084457;27;45266;-64
2023/07/03 00:24:15;;;;;;;;;2.33;2.00;;;;;20.66;46.01;100960.25;5080913;28;45165;-65
2023/07/03 00:26:41;;;;;;;;;4.00;2.00;;;;;20.65;46.25;100963.88;5093564;28;47625;-64
2023/07/03 00:29:06;;;;;;;;;5.33;3.00;;;;;20.68;46.08;100966.53;5069171;28;46911;-63
2023/07/03 00:31:31;;;;;;;;;6.67;2.00;;;;;20.71;46.48;100961.09;5091563;27;45208;-65
2023/07/03 00:33:58;;;;;;;;;3.00;3.00;;;;;20.69;46.40;100952.94;5088061;27;45207;-65
2023/07/03 00:36:24;;;;;;;;;3.00;2.00;;;;;20.67;46.70;100941.19;5073268;28;45201;-63
2023/07/03 00:38:49;;;;;;;;;1.50;1.00;;;;;20.67;46.75;100945.72;5083197;27;45826;-64
2023/07/03 00:41:15;;;;;;;;;4.67;3.00;;;;;20.71;46.58;100959.25;5084585;28;45498;-64
2023/07/03 00:43:41;;;;;;;;;2.00;2.00;;;;;20.70;47.00;100949.31;5085816;28;44957;-65
2023/07/03 00:46:09;;;;;;;;;5.00;2.00;;;;;20.66;47.08;100950.28;5091398;28;45501;-65
2023/07/03 00:48:34;;;;;;;;;4.67;4.67;;;;;20.64;47.54;100952.13;5083871;28;46184;-64
2023/07/03 00:51:00;;;;;;;;;2.33;2.33;;;;;20.58;47.38;100944.00;5092509;27;45269;-64
2023/07/03 00:53:25;;;;;;;;;2.33;1.67;;;;;20.63;47.68;100950.31;5093568;27;45122;-66
2023/07/03 00:55:51;;;;;;;;;2.67;2.67;;;;;20.65;47.43;100943.03;5087643;27;45143;-64
2023/07/03 00:58:16;;;;;;;;;3.00;2.00;;;;;20.61;47.70;100943.97;5092066;27;45630;-64
2023/07/03 01:01:06;;;;;;;;;2.00;2.00;;;;;20.65;47.87;100955.72;5092898;27;44982;-63
2023/07/03 01:03:40;;;;;;;;;2.00;1.00;;;;;20.54;47.86;100932.28;5031682;28;45253;-65
2023/07/03 01:06:16;;;;;;;;;3.00;3.00;;;;;20.53;47.94;100937.72;5088558;27;45235;-65
2023/07/03 01:08:42;;;;;;;;;4.00;2.33;;;;;20.45;48.46;100935.09;5089109;28;45496;-65
2023/07/03 01:11:08;;;;;;;;;3.00;1.00;;;;;20.44;48.24;100933.28;5087981;27;45128;-65
2023/07/03 01:13:36;;;;;;;;;3.00;3.00;;;;;20.42;48.44;100936.00;5091275;28;45143;-64
2023/07/03 01:16:04;;;;;;;;;5.33;4.67;;;;;20.49;48.51;100944.09;5093570;28;45205;-65
2023/07/03 01:18:31;;;;;;;;;2.00;2.00;;;;;20.57;48.03;100942.19;5089600;28;45264;-64
2023/07/03 01:21:14;;;;;;;;;4.67;3.00;;;;;20.59;48.49;100945.78;5073677;28;45358;-65
2023/07/03 01:24:05;;;;;;;;;3.00;3.00;;;;;20.60;48.33;100950.31;5070042;27;45260;-63
2023/07/03 01:26:32;;;;;;;;;4.67;3.33;;;;;20.60;48.53;100945.75;5089627;27;45253;-66
2023/07/03 01:29:01;;;;;;;;;4.67;4.33;;;;;20.59;48.80;100937.63;5087672;28;45267;-64
2023/07/03 01:31:29;;;;;;;;;1.67;1.00;;;;;20.60;48.69;100934.00;5090285;27;45210;-65
2023/07/03 01:33:57;;;;;;;;;6.33;3.00;;;;;20.61;48.50;100935.81;5086442;27;45206;-65
2023/07/03 01:36:24;;;;;;;;;3.67;3.00;;;;;20.67;48.25;100933.03;5084362;28;45225;-64
2023/07/03 01:38:51;;;;;;;;;2.33;2.33;;;;;20.32;48.78;100882.78;5081382;28;45569;-65
2023/07/03 01:41:18;;;;;;;;;3.00;3.00;;;;;20.56;48.81;100937.69;5085670;28;45348;-63
2023/07/03 01:43:45;;;;;;;;;2.33;2.33;;;;;20.59;48.96;100940.34;5069216;28;45190;-65
2023/07/03 01:46:11;;;;;;;;;3.33;2.33;;;;;20.57;48.83;100937.69;5081859;28;46657;-65
2023/07/03 01:48:36;;;;;;;;;4.00;3.00;;;;;20.61;48.93;100946.69;5073115;27;46222;-65
2023/07/03 01:51:03;;;;;;;;;6.33;3.00;;;;;20.62;49.01;100948.47;5079971;28;45119;-64
2023/07/03 01:53:36;;;;;;;;;1.33;1.33;;;;;20.61;49.33;100943.97;5091062;28;45287;-65
2023/07/03 01:56:12;;;;;;;;;3.00;3.00;;;;;20.56;49.29;100944.00;5081871;28;45030;-65
2023/07/03 01:59:17;;;;;;;;;5.00;3.33;;;;;20.56;49.29;100941.31;5070595;28;46353;-64
2023/07/03 02:02:01;;;;;;;;;3.67;2.00;;;;;20.53;49.50;100948.59;5081136;28;45023;-64
2023/07/03 02:04:33;;;;;;;;;5.33;3.00;;;;;20.39;49.63;100924.31;5090757;27;45246;-67
2023/07/03 02:07:00;;;;;;;;;3.67;3.00;;;;;20.49;49.70;100931.44;5087554;28;45111;-63
2023/07/03 02:09:26;;;;;;;;;3.67;2.00;;;;;20.54;49.54;100940.44;5077094;28;45640;-63
2023/07/03 02:11:53;;;;;;;;;2.33;2.33;;;;;20.58;49.61;100944.88;5088186;28;44941;-64
2023/07/03 02:14:19;;;;;;;;;4.67;3.67;;;;;20.56;49.67;100935.88;5089955;28;45155;-65
2023/07/03 02:16:47;;;;;;;;;5.00;4.00;;;;;20.43;49.63;100916.13;5070866;28;45204;-65
2023/07/03 02:19:14;;;;;;;;;4.00;3.33;;;;;20.53;49.73;100932.31;5083440;28;45560;-64
2023/07/03 02:21:40;;;;;;;;;6.67;5.00;;;;;20.59;49.92;100933.13;5091521;28;45065;-66
2023/07/03 02:24:07;;;;;;;;;6.33;4.00;;;;;20.57;49.68;100939.47;5074447;27;45050;-65
2023/07/03 02:26:33;;;;;;;;;2.67;2.67;;;;;20.55;50.00;100942.22;5069822;28;45114;-63
2023/07/03 02:28:58;;;;;;;;;5.33;3.33;;;;;20.52;49.85;100935.91;5080534;28;45412;-64
2023/07/03 02:31:23;;;;;;;;;7.67;4.67;;;;;20.53;49.95;100930.47;5070737;28;45023;-65
2023/07/03 02:33:49;;;;;;;;;6.00;4.67;;;;;20.54;49.99;100923.22;5081979;28;45138;-65
2023/07/03 02:36:14;;;;;;;;;2.67;2.67;;;;;20.34;50.35;100886.38;5081176;28;45160;-64
2023/07/03 02:38:39;;;;;;;;;4.33;3.67;;;;;20.45;50.51;100918.81;5086135;27;45580;-65
2023/07/03 02:41:05;;;;;;;;;8.00;3.67;;;;;20.40;50.62;100899.84;5089911;27;45030;-65
2023/07/03 02:43:33;;;;;;;;;4.00;3.00;;;;;20.42;50.43;100911.59;5079311;28;47726;-64
2023/07/03 02:46:03;;;;;;;;;3.00;3.00;;;;;20.48;50.56;100917.88;5073035;27;45268;-64
2023/07/03 02:48:28;;;;;;;;;5.00;3.33;;;;;20.47;50.82;100918.78;5076269;28;45663;-65
2023/07/03 02:50:54;;;;;;;;;4.33;4.33;;;;;20.47;51.16;100924.22;5088117;27;46515;-64
2023/07/03 02:53:19;;;;;;;;;6.33;3.00;;;;;20.46;51.18;100926.03;5083089;27;45084;-65
2023/07/03 02:55:48;;;;;;;;;5.33;4.00;;;;;20.41;50.98;100922.50;5085109;28;45251;-64
2023/07/03 02:58:13;;;;;;;;;6.33;3.00;;;;;20.31;51.55;100912.63;5082626;27;46115;-64
2023/07/03 03:00:39;;;;;;;;;5.00;4.33;;;;;20.31;51.53;100913.56;5088255;27;45212;-66
2023/07/03 03:03:04;;;;;;;;;4.33;2.33;;;;;20.35;51.62;100920.72;5073173;28;45008;-66
2023/07/03 03:05:29;;;;;;;;;6.67;5.33;;;;;20.37;51.22;100931.56;5077638;28;45327;-64
2023/07/03 03:07:55;;;;;;;;;5.33;5.00;;;;;20.38;50.93;100915.28;5077778;28;49298;-63
2023/07/03 03:10:20;;;;;;;;;11.33;5.00;;;;;20.41;51.21;100925.22;5085218;28;45061;-64
2023/07/03 03:12:45;;;;;;;;;6.33;4.00;;;;;20.40;51.04;100917.97;5091014;28;45479;-65
2023/07/03 03:15:11;;;;;;;;;7.00;4.67;;;;;20.33;51.05;100910.81;5084633;28;45323;-65
2023/07/03 03:17:36;;;;;;;;;4.00;3.67;;;;;19.98;51.21;100860.53;5089247;28;45179;-64
2023/07/03 03:20:02;;;;;;;;;2.67;2.67;;;;;20.23;51.02;100921.75;5085182;27;45844;-63
2023/07/03 03:22:27;;;;;;;;;7.33;5.00;;;;;20.13;51.24;100909.22;5089788;27;45120;-63
2023/07/03 03:24:53;;;;;;;;;8.00;6.00;;;;;20.06;51.28;100902.97;5080799;28;44949;-64
2023/07/03 03:27:18;;;;;;;;;7.00;5.00;;;;;20.15;51.30;100912.81;5089331;27;53369;-65
2023/07/03 03:29:44;;;;;;;;;6.00;4.00;;;;;20.05;51.45;100893.03;5078928;28;45091;-65
2023/07/03 03:32:09;;;;;;;;;1.00;0.67;;;;;20.09;51.35;100909.25;5086114;27;45044;-65
2023/07/03 03:34:35;;;;;;;;;8.67;5.67;;;;;20.08;51.38;100905.66;5094264;27;45225;-65
2023/07/03 03:37:02;;;;;;;;;9.33;7.00;;;;;20.07;51.37;100898.44;5078916;28;46679;-65
2023/07/03 03:39:27;;;;;;;;;14.67;7.00;;;;;20.17;51.23;100918.22;5092202;27;45234;-64
2023/07/03 03:41:52;;;;;;;;;7.00;7.00;;;;;20.20;51.44;100929.03;5080154;28;44948;-64
2023/07/03 03:44:18;;;;;;;;;7.67;7.33;;;;;20.10;51.24;100901.13;5083227;28;45338;-65
2023/07/03 03:46:43;;;;;;;;;7.33;6.00;;;;;20.09;51.66;100910.16;5064369;28;46209;-65
2023/07/03 03:49:11;;;;;;;;;10.00;8.00;;;;;20.14;51.87;100912.81;5088429;27;45147;-64
2023/07/03 03:51:37;;;;;;;;;8.00;6.33;;;;;20.15;52.06;100915.53;5087338;28;45236;-64
2023/07/03 03:54:03;;;;;;;;;6.33;6.33;;;;;20.17;51.77;100902.84;5088751;28;45214;-64
2023/07/03 03:56:29;;;;;;;;;11.33;8.00;;;;;20.15;52.27;100917.34;5086043;27;45388;-65
2023/07/03 03:58:54;;;;;;;;;10.00;7.00;;;;;20.07;52.37;100902.03;5086697;27;44988;-64
2023/07/03 04:01:19;;;;;;;;;8.67;6.67;;;;;20.06;52.74;100912.91;5085433;28;47921;-65
2023/07/03 04:03:45;;;;;;;;;7.00;5.67;;;;;20.11;52.90;100915.56;5083807;28;45365;-65
2023/07/03 04:06:10;;;;;;;;;6.00;5.00;;;;;20.06;52.77;100900.25;5086516;27;48208;-64
2023/07/03 04:08:36;;;;;;;;;6.33;5.00;;;;;20.07;52.60;100912.88;5091561;27;45076;-63
2023/07/03 04:11:01;;;;;;;;;4.00;4.00;;;;;20.16;52.77;100928.19;5087097;27;45382;-64
2023/07/03 04:13:27;;;;;;;;;7.67;6.00;;;;;20.18;52.98;100922.75;5085085;28;45276;-65
2023/07/03 04:15:52;;;;;;;;;8.67;6.33;;;;;20.21;52.84;100922.69;5093099;27;45080;-65
2023/07/03 04:18:21;;;;;;;;;7.33;6.67;;;;;20.20;52.91;100918.19;5089632;27;45086;-64
2023/07/03 04:20:47;;;;;;;;;5.33;5.00;;;;;20.20;53.14;100913.66;5084670;28;45134;-63
2023/07/03 04:23:12;;;;;;;;;8.00;4.33;;;;;20.21;53.08;100923.59;5089514;28;45087;-63
2023/07/03 04:25:38;;;;;;;;;8.33;6.00;;;;;20.23;53.46;100924.47;5093408;28;45610;-64
2023/07/03 04:28:04;;;;;;;;;8.00;5.00;;;;;20.23;53.22;100913.63;5089206;27;45006;-67
2023/07/03 04:30:29;;;;;;;;;5.33;5.33;;;;;20.27;53.46;100919.03;5084164;28;45248;-64
2023/07/03 04:32:54;;;;;;;;;4.00;4.00;;;;;20.22;53.47;100905.50;5089535;27;45083;-67
2023/07/03 04:35:21;;;;;;;;;4.00;4.00;;;;;20.34;53.25;100909.88;5074166;28;46171;-64
2023/07/03 04:37:46;;;;;;;;;6.00;5.33;;;;;20.41;53.11;100911.63;5079340;28;45283;-65
2023/07/03 04:40:12;;;;;;;;;10.00;5.33;;;;;20.47;53.24;100913.38;5085237;27;45234;-63
2023/07/03 04:42:38;;;;;;;;;5.33;5.33;;;;;20.43;53.28;100913.41;5088603;28;45225;-65
2023/07/03 04:45:06;;;;;;;;;8.00;6.67;;;;;20.32;53.79;100899.06;5078605;28;45920;-65
2023/07/03 04:47:31;;;;;;;;;10.67;7.00;;;;;20.36;53.56;100910.75;5091797;28;45014;-66
2023/07/03 04:49:58;;;;;;;;;7.00;7.00;;;;;20.37;53.53;100904.44;5087308;28;45098;-64
2023/07/03 04:52:27;;;;;;;;;11.67;5.67;;;;;20.41;54.33;100912.53;5088253;28;45154;-64
2023/07/03 04:54:53;;;;;;;;;8.00;6.33;;;;;20.43;53.46;100915.22;5091833;27;45119;-66
2023/07/03 04:57:19;;;;;;;;;11.00;5.67;;;;;20.46;53.38;100911.56;5085013;28;45171;-66
2023/07/03 04:59:44;;;;;;;;;5.00;4.00;;;;;20.38;53.11;100895.38;5070591;28;45678;-65
2023/07/03 05:02:12;;;;;;;;;7.00;6.00;;;;;20.46;53.19;100903.41;5082955;28;45212;-63
2023/07/03 05:04:37;;;;;;;;;6.33;5.00;;;;;20.55;52.80;100919.59;5079909;28;45530;-66
2023/07/03 05:07:03;;;;;;;;;7.00;4.00;;;;;20.45;52.62;100891.66;5083065;28;45242;-63
2023/07/03 05:09:28;;;;;;;;;7.67;6.00;;;;;20.58;52.91;100912.31;5090479;28;45087;-63
2023/07/03 05:11:53;;;;;;;;;6.00;4.67;;;;;20.59;52.59;100900.56;5088571;28;45040;-65
2023/07/03 05:14:18;;;;;;;;;5.33;5.33;;;;;20.59;52.30;100913.19;5082280;27;46218;-67
2023/07/03 05:16:44;;;;;;;;;6.67;5.00;;;;;20.57;52.21;100904.19;5091020;27;45126;-64
2023/07/03 05:19:09;;;;;;;;;6.00;6.00;;;;;20.66;51.60;100916.81;5093421;27;45292;-65
2023/07/03 05:21:34;;;;;;;;;4.33;4.33;;;;;20.56;51.54;100914.16;5089947;28;45341;-65
2023/07/03 05:24:00;;;;;;;;;7.33;6.00;;;;;20.51;51.86;100907.88;5087261;27;46063;-65
2023/07/03 05:26:25;;;;;;;;;7.67;5.67;;;;;20.56;51.78;100915.97;5078567;28;45453;-64
2023/07/03 05:28:50;;;;;;;;;7.00;5.33;;;;;20.22;52.08;100868.41;5090179;27;45518;-64
2023/07/03 05:31:16;;;;;;;;;11.00;8.00;;;;;20.55;52.67;100925.91;5092633;28;45374;-62
2023/07/03 05:33:42;;;;;;;;;8.00;6.00;;;;;20.59;51.76;100924.06;5092930;28;46073;-62
2023/07/03 05:36:07;;;;;;;;;10.00;9.00;;;;;20.57;52.12;100924.09;5091446;28;45026;-63
2023/07/03 05:38:33;;;;;;;;;8.67;6.00;;;;;20.59;52.73;100905.97;5084466;27;45089;-64
2023/07/03 05:40:59;;;;;;;;;8.33;5.67;;;;;20.70;52.47;100913.13;5090216;27;45095;-63
2023/07/03 05:43:26;;;;;;;;;10.33;5.33;;;;;20.61;51.58;100903.25;5091982;27;47129;-64
2023/07/03 05:45:52;;;;;;;;;5.00;3.67;;;;;20.57;51.80;100907.81;5086746;27;45143;-63
2023/07/03 05:48:17;;;;;;;;;5.67;4.33;;;;;20.58;51.83;100895.13;5080932;27;45122;-64
2023/07/03 05:50:43;;;;;;;;;5.00;5.00;;;;;20.61;51.48;100887.84;5083373;27;45170;-67
2023/07/03 05:53:09;;;;;;;;;7.33;4.00;;;;;20.69;51.92;100895.94;5092283;28;46714;-64
2023/07/03 05:55:34;;;;;;;;;9.00;7.33;;;;;20.77;51.50;100904.88;5082259;28;45000;-64
2023/07/03 05:58:00;;;;;;;;;10.33;6.33;;;;;20.77;51.41;100910.31;5063500;28;45163;-65
2023/07/03 06:00:27;;;;;;;;;5.67;5.67;;;;;20.77;51.46;100904.88;5079790;28;45183;-63
2023/07/03 06:02:54;;;;;;;;;5.33;5.33;;;;;20.80;51.22;100904.84;5091815;27;46219;-65
2023/07/03 06:05:20;;;;;;;;;6.33;4.00;;;;;20.80;50.73;100910.28;5092546;27;45087;-63
2023/07/03 06:07:45;;;;;;;;;5.00;4.00;;;;;20.82;50.15;100907.50;5086403;27;45070;-62
2023/07/03 06:10:12;;;;;;;;;4.00;4.00;;;;;20.83;49.19;100908.44;5086702;28;45263;-63
2023/07/03 06:12:39;;;;;;;;;7.67;6.67;;;;;20.90;49.03;100912.84;5091646;27;45219;-63
2023/07/03 06:15:04;;;;;;;;;9.00;7.00;;;;;20.91;48.55;100909.22;5083127;28;45619;-61
2023/07/03 06:17:31;;;;;;;;;5.00;4.00;;;;;20.90;48.89;100919.16;5075341;28;45606;-63
2023/07/03 06:19:57;;;;;;;;;8.33;7.00;;;;;20.92;49.54;100909.19;5082533;28;45096;-63
2023/07/03 06:22:22;;;;;;;;;10.00;7.67;;;;;20.95;49.46;100900.09;5083129;27;45809;-65
2023/07/03 06:24:48;;;;;;;;;6.67;5.67;;;;;21.08;49.54;100915.28;5073414;28;45071;-65
2023/07/03 06:27:14;;;;;;;;;3.67;3.67;;;;;21.06;50.12;100906.28;5070657;28;45150;-69
2023/07/03 06:29:43;;;;;;;;;7.00;5.67;;;;;21.11;49.90;100909.81;5065374;28;45320;-69
2023/07/03 06:32:10;;;;;;;;;7.33;6.00;;;;;20.73;50.23;100843.38;5079918;27;45351;-69
2023/07/03 06:34:36;;;;;;;;;8.33;5.00;;;;;21.11;50.38;100895.34;5069672;28;45468;-63
2023/07/03 06:37:05;;;;;;;;;5.33;3.67;;;;;21.12;50.19;100917.06;5070601;28;46181;-64
2023/07/03 06:39:31;;;;;;;;;6.00;6.00;;;;;21.08;50.05;100912.59;5057335;28;45039;-63
2023/07/03 06:41:56;;;;;;;;;13.67;6.33;;;;;21.03;50.20;100903.59;5080443;28;45563;-64
2023/07/03 06:44:21;;;;;;;;;7.00;4.33;;;;;21.08;50.00;100907.16;5088941;27;44978;-62
2023/07/03 06:46:47;;;;;;;;;7.00;5.00;;;;;21.01;49.54;100894.59;5084577;28;47103;-63
2023/07/03 06:49:13;;;;;;;;;7.33;7.33;;;;;21.08;49.81;100890.84;5088274;27;45247;-62
2023/07/03 06:51:39;;;;;;;;;4.00;4.00;;;;;21.21;49.80;100906.97;5069159;28;48538;-64
2023/07/03 06:54:05;;;;;;;;;7.67;4.67;;;;;20.97;49.48;100863.88;5086984;27;45365;-64
2023/07/03 06:56:30;;;;;;;;;7.00;4.00;;;;;21.29;49.21;100907.75;5085597;28;45170;-62
2023/07/03 06:58:56;;;;;;;;;4.00;4.00;;;;;21.33;49.06;100914.94;5089736;28;44976;-63
2023/07/03 07:01:24;;;;;;;;;6.00;6.00;;;;;21.14;49.05;100877.19;5089113;28;45700;-65
2023/07/03 07:03:50;;;;;;;;;7.00;5.00;;;;;21.40;48.78;100905.78;5087861;28;45401;-64
2023/07/03 07:06:29;;;;;;;;;4.33;4.33;;;;;21.35;49.00;100908.56;5089550;28;45221;-64
2023/07/03 07:08:54;;;;;;;;;3.67;3.67;;;;;21.38;48.96;100920.31;5088246;28;45104;-62
2023/07/03 07:11:25;;;;;;;;;6.00;5.33;;;;;21.43;49.13;100911.19;5088714;28;45332;-62
2023/07/03 07:13:52;;;;;;;;;7.33;5.33;;;;;21.50;49.04;100912.00;5070179;28;45383;-62
2023/07/03 07:16:32;;;;;;;;;3.00;3.00;;;;;21.56;48.54;100921.88;5088152;28;45178;-65
2023/07/03 07:19:00;;;;;;;;;4.67;3.67;;;;;21.56;48.37;100919.16;5077277;28;45263;-62
2023/07/03 07:21:26;;;;;;;;;9.00;6.00;;;;;21.45;48.34;100898.44;5080665;27;45159;-63
2023/07/03 07:23:55;;;;;;;;;3.67;3.67;;;;;21.59;48.66;100920.00;5088326;27;45189;-65
2023/07/03 07:26:22;;;;;;;;;13.33;4.00;;;;;21.59;48.33;100924.53;5088532;28;45384;-63
2023/07/03 07:28:48;;;;;;;;;5.00;5.00;;;;;21.58;48.63;100920.00;5069524;28;45424;-66
2023/07/03 07:31:25;;;;;;;;;6.00;4.67;;;;;21.67;48.50;100920.75;5087358;28;45332;-65
2023/07/03 07:33:50;;;;;;;;;3.00;3.00;;;;;21.66;48.63;100913.56;5090399;27;45483;-63
2023/07/03 07:36:19;;;;;;;;;5.67;4.00;;;;;21.80;48.43;100920.56;5089648;28;45307;-62
2023/07/03 07:38:45;;;;;;;;;5.00;4.00;;;;;21.81;48.56;100917.81;5078567;28;45568;-69
2023/07/03 07:41:11;;;;;;;;;6.33;5.00;;;;;21.86;48.27;100925.88;5085991;27;45321;-69
2023/07/03 07:43:37;;;;;;;;;6.00;4.33;;;;;21.86;48.27;100934.97;5088722;27;45079;-66
2023/07/03 07:46:03;;;;;;;;;7.00;5.00;;;;;21.84;48.40;100920.47;5088245;27;45104;-64
2023/07/03 07:48:28;;;;;;;;;8.67;5.33;;;;;21.86;48.23;100931.31;5081768;28;45205;-64
2023/07/03 07:50:54;;;;;;;;;6.00;5.00;;;;;21.87;48.14;100939.47;5087630;27;45404;-64
2023/07/03 07:53:19;;;;;;;;;3.33;3.00;;;;;21.85;48.44;100940.44;5070147;28;45307;-62
2023/07/03 07:55:45;;;;;;;;;4.67;4.67;;;;;21.81;48.47;100931.44;5088705;27;45216;-64
2023/07/03 07:58:10;;;;;;;;;5.33;2.33;;;;;21.85;48.17;100934.97;5087307;28;45157;-64
2023/07/03 08:00:36;;;;;;;;;5.00;5.00;;;;;21.70;48.33;100915.28;5088875;28;45695;-64
2023/07/03 08:03:02;;;;;;;;;3.33;3.00;;;;;21.88;48.57;100934.94;5086713;27;45297;-64
2023/07/03 08:05:27;;;;;;;;;7.33;5.00;;;;;21.90;48.40;100927.63;5082167;28;44975;-64
2023/07/03 08:07:52;;;;;;;;;5.00;4.00;;;;;21.92;48.07;100936.66;5067235;28;45368;-64
2023/07/03 08:10:19;;;;;;;;;8.00;5.00;;;;;21.96;48.05;100932.06;5090304;28;47027;-64
2023/07/03 08:12:45;;;;;;;;;5.33;5.33;;;;;21.92;47.35;100916.72;5084711;28;45697;-63
2023/07/03 08:15:10;;;;;;;;;6.00;5.00;;;;;22.02;46.30;100942.84;5090916;28;44984;-62
2023/07/03 08:17:36;;;;;;;;;4.00;4.00;;;;;21.94;46.15;100929.38;5093096;27;45265;-63
2023/07/03 08:20:01;;;;;;;;;6.33;5.00;;;;;21.96;46.11;100929.34;5090591;28;45902;-64
2023/07/03 08:22:27;;;;;;;;;8.67;5.00;;;;;21.99;45.97;100932.00;5085165;28;45055;-64
2023/07/03 08:24:53;;;;;;;;;4.67;4.67;;;;;22.08;46.28;100932.75;5092178;28;44909;-63
2023/07/03 08:27:18;;;;;;;;;4.00;4.00;;;;;22.14;46.01;100930.81;5092613;27;45287;-62
2023/07/03 08:29:46;;;;;;;;;10.00;7.00;;;;;22.25;46.04;100929.69;5091460;27;45895;-65
2023/07/03 08:32:13;;;;;;;;;9.67;6.00;;;;;22.30;45.97;100926.03;5092082;27;44980;-64
2023/07/03 08:34:38;;;;;;;;;4.33;4.33;;;;;22.37;45.41;100924.97;5091795;27;45157;-63
2023/07/03 08:37:05;;;;;;;;;3.67;3.67;;;;;22.43;45.75;100928.47;5080057;28;45321;-63
2023/07/03 08:39:30;;;;;;;;;8.00;6.00;;;;;22.48;45.39;100941.13;5071340;28;46052;-64
2023/07/03 08:42:04;;;;;;;;;4.00;4.00;;;;;22.47;45.19;100936.59;5084283;27;46291;-64
2023/07/03 08:44:30;;;;;;;;;5.00;2.33;;;;;22.47;45.26;100932.03;5085972;27;45579;-64
2023/07/03 08:46:58;;;;;;;;;5.67;4.33;;;;;22.12;45.48;100878.25;5086139;28;45350;-65
2023/07/03 08:49:24;;;;;;;;;1.33;1.33;;;;;22.42;45.34;100932.16;5073292;27;46013;-64
2023/07/03 08:51:52;;;;;;;;;6.00;5.00;;;;;22.46;45.62;100932.97;5081783;28;45128;-66
2023/07/03 08:54:27;;;;;;;;;5.00;5.00;;;;;22.47;45.95;100936.59;5091514;27;45321;-63
2023/07/03 08:56:54;;;;;;;;;3.00;3.00;;;;;22.38;45.74;100932.22;5090654;27;45338;-65
2023/07/03 08:59:20;;;;;;;;;6.00;5.00;;;;;22.35;46.20;100935.00;5089920;28;45880;-64
2023/07/03 09:01:45;;;;;;;;;12.00;8.67;;;;;22.30;46.36;100936.94;5074796;28;46279;-64
2023/07/03 09:04:16;;;;;;;;;9.67;5.00;;;;;22.22;46.26;100932.50;5089715;28;45414;-63
2023/07/03 09:06:41;;;;;;;;;4.33;3.00;;;;;22.17;46.37;100948.00;5090971;27;45046;-65
2023/07/03 09:09:28;;;;;;;;;8.67;6.67;;;;;22.13;46.34;100956.28;5090372;28;45995;-63
2023/07/03 09:12:11;;;;;;;;;7.67;5.00;;;;;21.95;46.44;100952.94;5090370;28;45330;-64
2023/07/03 09:14:46;;;;;;;;;6.00;5.00;;;;;21.73;47.05;100936.09;5091451;28;45239;-64
2023/07/03 09:17:12;;;;;;;;;5.67;5.00;;;;;21.79;47.44;100946.84;5078441;28;45073;-66
2023/07/03 09:19:43;;;;;;;;;8.33;6.00;;;;;21.79;47.21;100956.84;5081006;28;45601;-63
2023/07/03 09:22:28;;;;;;;;;8.00;5.67;;;;;21.81;47.08;100950.47;5090778;28;45075;-63
2023/07/03 09:24:57;;;;;;;;;5.00;5.00;;;;;21.92;46.88;100952.09;5088341;27;44905;-62
2023/07/03 09:27:28;;;;;;;;;9.67;6.00;;;;;22.07;46.50;100952.69;5091026;27;45127;-64
2023/07/03 09:29:59;;;;;;;;;5.67;5.67;;;;;22.11;46.53;100937.25;5089886;27;46339;-63
2023/07/03 09:32:28;;;;;;;;;6.67;5.67;;;;;22.29;46.28;100946.94;5092076;28;45210;-65
2023/07/03 09:35:17;;;;;;;;;8.33;6.00;;;;;22.50;45.79;100941.97;5090874;28;45541;-66
2023/07/03 09:37:45;;;;;;;;;6.33;4.67;;;;;22.64;45.25;100935.31;5083534;27;45320;-67
2023/07/03 09:40:18;;;;;;;;;6.33;6.00;;;;;22.69;45.08;100934.34;5092123;28;45587;-65
2023/07/03 09:42:43;;;;;;;;;4.00;3.00;;;;;22.73;44.91;100928.78;5087956;27;45174;-66
2023/07/03 09:45:18;;;;;;;;;6.33;4.00;;;;;22.82;44.70;100930.44;5092796;28;44991;-65
2023/07/03 09:47:55;;;;;;;;;6.00;5.67;;;;;22.80;44.56;100915.91;5087469;27;45117;-66
2023/07/03 09:50:34;;;;;;;;;6.67;5.67;;;;;22.96;44.37;100935.56;5085855;28;44984;-67
2023/07/03 09:53:01;;;;;;;;;6.00;5.00;;;;;23.17;44.54;100936.94;5081501;28;44904;-67
2023/07/03 09:55:27;;;;;;;;;9.00;7.00;;;;;23.37;43.83;100931.03;5079542;28;45117;-66
2023/07/03 09:57:53;;;;;;;;;6.00;4.67;;;;;23.46;43.18;100929.91;5090978;28;45177;-67
2023/07/03 10:00:22;;;;;;;;;6.00;6.00;;;;;23.55;43.17;100926.97;5088259;28;45949;-66
2023/07/03 10:02:55;;;;;;;;;6.67;5.00;;;;;23.59;43.53;100941.41;5092796;27;45156;-63
2023/07/03 10:05:29;;;;;;;;;7.00;5.67;;;;;23.54;43.38;100941.53;5092704;28;45043;-64
2023/07/03 10:08:00;;;;;;;;;7.00;4.67;;;;;23.55;43.06;100943.31;5093642;28;45090;-66
2023/07/03 10:10:28;;;;;;;;;8.33;7.00;;;;;23.53;42.70;100943.38;5091987;27;45680;-64
2023/07/03 10:13:16;;;;;;;;;6.67;4.67;;;;;23.57;42.50;100946.03;5074034;28;45217;-63
2023/07/03 10:15:42;;;;;;;;;6.00;3.00;;;;;23.56;42.84;100950.59;5063803;28;45303;-64
2023/07/03 10:18:25;;;;;;;;;3.67;3.67;;;;;23.47;42.50;100945.34;5085673;27;44969;-65
2023/07/03 10:20:51;;;;;;;;;3.00;3.00;;;;;23.48;41.67;100947.16;5092422;27;45622;-66
2023/07/03 10:23:28;;;;;;;;;6.67;5.33;;;;;23.55;41.82;100951.50;5090876;28;45167;-66
2023/07/03 10:26:05;;;;;;;;;3.33;3.33;;;;;23.55;41.38;100960.56;5074281;28;45303;-65
2023/07/03 10:28:45;;;;;;;;;5.00;4.00;;;;;23.45;41.84;100964.47;5079953;28;45174;-64
2023/07/03 10:31:21;;;;;;;;;7.00;5.33;;;;;23.51;41.88;100968.88;5088706;28;45185;-64
2023/07/03 10:33:49;;;;;;;;;7.00;5.00;;;;;23.62;41.77;100961.31;5088057;28;45536;-65
2023/07/03 10:36:25;;;;;;;;;6.00;4.33;;;;;23.72;41.54;100957.44;5086680;27;45177;-65
2023/07/03 10:39:08;;;;;;;;;8.00;7.00;;;;;23.80;41.37;100953.63;5089078;28;45032;-67
2023/07/03 10:41:43;;;;;;;;;4.00;4.00;;;;;23.91;40.73;100959.75;5076662;28;45307;-67
2023/07/03 10:44:22;;;;;;;;;5.67;4.33;;;;;24.01;40.23;100946.75;5089652;28;45112;-66
2023/07/03 10:46:58;;;;;;;;;7.00;4.33;;;;;24.13;40.43;100956.47;5071326;28;45447;-68
2023/07/03 10:49:35;;;;;;;;;7.33;4.67;;;;;24.13;40.06;100946.44;5085109;27;45151;-65
2023/07/03 10:52:29;;;;;;;;;4.67;3.00;;;;;24.12;39.10;100927.34;5083265;28;45230;-65
2023/07/03 10:55:15;;;;;;;;;6.67;5.67;;;;;24.08;38.87;100941.09;5088819;28;45277;-66
2023/07/03 10:58:02;;;;;;;;;3.33;2.00;;;;;23.90;38.35;100952.50;5074141;28;45288;-65
2023/07/03 11:00:46;;;;;;;;;4.00;3.00;;;;;23.68;38.30;100947.53;5085229;28;45137;-65
2023/07/03 11:03:23;;;;;;;;;4.00;4.00;;;;;23.59;38.28;100946.88;5088975;28;45135;-68
2023/07/03 11:05:58;;;;;;;;;4.00;4.00;;;;;23.60;38.85;100940.50;5075742;28;45248;-66
2023/07/03 11:08:33;;;;;;;;;3.67;3.67;;;;;23.63;39.07;100940.44;5088370;28;45229;-66
2023/07/03 11:11:28;;;;;;;;;4.00;4.00;;;;;23.68;37.20;100939.34;5088685;27;45176;-65
2023/07/03 11:14:16;;;;;;;;;3.67;1.67;;;;;23.62;36.06;100928.59;5089076;28;45553;-66
2023/07/03 11:16:51;;;;;;;;;3.33;2.00;;;;;23.65;34.66;100935.81;5080087;28;45216;-64
2023/07/03 11:19:41;;;;;;;;;3.33;2.33;;;;;23.79;34.84;100943.63;5078720;28;44923;-69
2023/07/03 11:22:17;;;;;;;;;3.33;3.00;;;;;23.83;33.89;100932.66;5089691;28;45113;-68
2023/07/03 11:25:01;;;;;;;;;7.33;3.00;;;;;23.94;33.43;100940.56;5088411;27;45285;-66
2023/07/03 11:27:52;;;;;;;;;3.00;3.00;;;;;24.01;32.98;100934.00;5088366;28;45136;-64
2023/07/03 11:30:18;;;;;;;;;2.00;2.00;;;;;24.01;32.86;100935.84;5076411;28;45143;-70
2023/07/03 11:32:45;;;;;;;;;2.00;2.00;;;;;24.00;33.03;100932.19;5086603;27;45086;-65